Time;durP1;ratioP1;P1;durP2;ratioP2;P2;SDS_P1;SDS_P2;PMS_P1;PMS_P2;Temp;Humidity;BMP_temperature;BMP_pressure;BME280_temperature;BME280_humidity;BME280_pressure;Samples;Min_cycle;Max_cycle;Signal;HPM_P1;HPM_P2
2021/03/30 00:00:24;;;;;;;6.70;2.70;;;;;;;3.30;32.60;101472.94;5005721;28;20081;-65
2021/03/30 00:02:49;;;;;;;4.85;2.25;;;;;;;3.18;32.53;101463.50;5002517;28;20091;-65
2021/03/30 00:05:15;;;;;;;9.05;3.35;;;;;;;3.21;32.50;101473.13;5009990;28;20037;-64
2021/03/30 00:07:41;;;;;;;7.88;2.80;;;;;;;3.30;32.59;101478.25;5010391;28;20049;-63
2021/03/30 00:10:13;;;;;;;6.30;2.90;;;;;;;3.29;32.69;101474.72;5009989;28;20056;-53
2021/03/30 00:12:40;;;;;;;14.52;3.25;;;;;;;3.29;32.90;101473.84;5009689;28;20037;-61
2021/03/30 00:15:08;;;;;;;7.55;3.00;;;;;;;3.29;32.88;101471.22;5012505;28;20034;-62
2021/03/30 00:17:33;;;;;;;4.00;2.70;;;;;;;3.28;33.11;101465.03;5013958;28;20041;-63
2021/03/30 00:19:59;;;;;;;12.57;3.05;;;;;;;3.28;33.22;101456.22;5013571;28;20371;-62
2021/03/30 00:22:24;;;;;;;6.40;3.40;;;;;;;3.21;33.31;101452.84;5013872;28;20066;-64
2021/03/30 00:24:50;;;;;;;7.88;3.17;;;;;;;3.13;33.21;101452.13;5013548;28;20119;-63
2021/03/30 00:27:15;;;;;;;5.45;2.88;;;;;;;3.16;33.66;101460.88;5014208;28;20030;-62
2021/03/30 00:29:46;;;;;;;8.50;3.35;;;;;;;3.16;33.57;101466.19;5013850;28;20041;-63
2021/03/30 00:32:13;;;;;;;6.55;2.95;;;;;;;3.13;33.69;101473.31;5013735;28;20037;-62
2021/03/30 00:34:39;;;;;;;5.95;3.00;;;;;;;3.09;33.92;101474.28;5013507;28;20044;-61
2021/03/30 00:37:06;;;;;;;7.93;2.97;;;;;;;2.97;33.91;101468.38;5013345;28;20064;-61
2021/03/30 00:39:32;;;;;;;5.40;2.63;;;;;;;2.95;33.99;101464.91;5013584;28;20041;-61
2021/03/30 00:41:58;;;;;;;5.43;3.03;;;;;;;2.91;34.14;101463.25;5021987;28;20030;-62
2021/03/30 00:44:24;;;;;;;6.90;3.00;;;;;;;2.85;33.68;101471.28;5013607;28;20046;-63
2021/03/30 00:46:50;;;;;;;6.50;3.20;;;;;;;2.46;33.99;101397.22;5013114;28;20095;-62
2021/03/30 00:49:17;;;;;;;4.82;2.83;;;;;;;2.90;33.96;101457.97;5013742;28;20045;-61
2021/03/30 00:51:45;;;;;;;7.10;3.00;;;;;;;2.87;33.84;101457.13;5012834;28;20046;-62
2021/03/30 00:54:12;;;;;;;12.57;2.72;;;;;;;2.80;33.70;101426.44;5013559;28;20336;-61
2021/03/30 00:56:38;;;;;;;8.57;3.03;;;;;;;2.96;33.70;101452.53;5012875;28;20030;-60
2021/03/30 00:59:03;;;;;;;11.25;3.00;;;;;;;2.96;33.61;101453.41;5013614;28;20038;-62
2021/03/30 01:01:29;;;;;;;5.53;2.88;;;;;;;2.97;33.95;101460.44;5013583;28;20065;-62
2021/03/30 01:03:55;;;;;;;5.97;3.13;;;;;;;2.96;34.02;101450.78;5013314;28;20035;-63
2021/03/30 01:06:20;;;;;;;7.20;3.20;;;;;;;2.96;33.76;101453.41;5013508;28;20092;-61
2021/03/30 01:09:10;;;;;;;5.60;3.05;;;;;;;2.96;34.30;101449.88;5012676;28;20430;-62
2021/03/30 01:12:04;;;;;;;11.13;3.78;;;;;;;2.92;34.36;101445.56;5013668;28;20057;-61
2021/03/30 01:14:42;;;;;;;11.02;3.40;;;;;;;2.91;34.24;101441.19;5013702;28;20030;-65
2021/03/30 01:17:41;;;;;;;5.40;2.55;;;;;;;2.90;33.71;101432.41;5013402;28;20022;-50
2021/03/30 01:20:35;;;;;;;9.98;3.08;;;;;;;3.01;33.74;101434.78;5004112;28;20038;-54
2021/03/30 01:23:04;;;;;;;6.43;3.20;;;;;;;2.96;33.82;101436.66;5011540;28;20057;-61
2021/03/30 01:25:30;;;;;;;7.55;3.10;;;;;;;2.95;34.13;101435.81;5013072;28;20054;-63
2021/03/30 01:28:09;;;;;;;5.30;2.67;;;;;;;2.53;34.20;101369.75;5012836;28;20041;-61
2021/03/30 01:30:36;;;;;;;5.75;2.80;;;;;;;2.75;34.23;101412.44;5012146;28;20137;-61
2021/03/30 01:33:13;;;;;;;5.47;2.90;;;;;;;2.95;34.30;101438.44;5012506;28;20167;-61
2021/03/30 01:35:41;;;;;;;6.05;2.70;;;;;;;3.01;33.87;101433.00;5012969;28;20061;-60
2021/03/30 01:38:08;;;;;;;7.72;2.70;;;;;;;3.03;33.52;101435.63;5012797;28;20088;-53
2021/03/30 01:40:35;;;;;;;7.68;3.03;;;;;;;2.99;34.01;101436.59;5012431;28;20398;-62
2021/03/30 01:43:04;;;;;;;4.63;2.50;;;;;;;2.99;34.18;101434.81;5012387;28;20042;-61
2021/03/30 01:45:30;;;;;;;4.68;2.78;;;;;;;2.49;34.32;101353.06;5012360;28;20041;-61
2021/03/30 01:47:57;;;;;;;5.93;2.75;;;;;;;2.96;34.50;101431.38;5012300;28;20068;-60
2021/03/30 01:50:23;;;;;;;5.47;2.45;;;;;;;2.96;34.12;101432.25;5011824;28;20042;-63
2021/03/30 01:52:50;;;;;;;5.82;2.75;;;;;;;2.94;34.43;101436.72;5010974;28;20060;-52
2021/03/30 01:55:17;;;;;;;3.60;2.40;;;;;;;2.90;34.67;101432.41;5012317;28;20041;-61
2021/03/30 01:57:47;;;;;;;4.53;2.40;;;;;;;2.96;34.71;101431.38;5012300;28;20038;-62
2021/03/30 02:00:14;;;;;;;4.88;2.78;;;;;;;2.94;34.82;101438.47;5012151;28;20138;-61
2021/03/30 02:02:44;;;;;;;7.15;2.88;;;;;;;2.75;35.27;101411.56;5011948;28;20406;-62
2021/03/30 02:05:13;;;;;;;6.05;3.13;;;;;;;2.83;34.92;101429.03;5012455;28;20037;-62
2021/03/30 02:07:43;;;;;;;5.70;2.75;;;;;;;2.77;35.28;101426.50;5012566;28;20038;-61
2021/03/30 02:10:29;;;;;;;5.22;2.63;;;;;;;2.80;35.48;101431.75;5011929;28;20401;-63
2021/03/30 02:12:55;;;;;;;;;;;;;;;2.98;34.99;101432.19;5012554;28;20034;-61
2021/03/30 02:15:20;;;;;;;6.20;2.72;;;;;;;2.87;34.76;101430.69;5011770;28;19918;-61
2021/03/30 02:17:56;;;;;;;5.20;2.60;;;;;;;2.83;35.70;101431.66;5011958;28;20033;-62
2021/03/30 02:20:33;;;;;;;6.18;2.58;;;;;;;2.82;35.64;101429.03;5011835;28;20187;-63
2021/03/30 02:23:05;;;;;;;6.13;3.00;;;;;;;2.73;36.08;101423.06;5011313;28;20391;-63
2021/03/30 02:25:32;;;;;;;4.45;2.83;;;;;;;2.68;35.85;101422.31;5011863;28;20038;-62
2021/03/30 02:28:11;;;;;;;6.55;2.88;;;;;;;2.70;35.76;101431.06;5011864;28;20042;-62
2021/03/30 02:30:38;;;;;;;10.45;2.70;;;;;;;2.65;35.78;101426.78;5012176;28;20121;-62
2021/03/30 02:33:07;;;;;;;7.03;3.13;;;;;;;2.60;36.12;101432.16;5011334;28;20038;-62
2021/03/30 02:35:34;;;;;;;5.68;2.78;;;;;;;2.50;36.09;101422.69;5012282;28;20048;-63
2021/03/30 02:38:03;;;;;;;9.43;3.20;;;;;;;2.51;36.46;101429.72;5011473;28;20081;-62
2021/03/30 02:40:29;;;;;;;4.85;2.72;;;;;;;2.47;36.29;101428.03;5011951;28;20034;-60
2021/03/30 02:42:55;;;;;;;5.07;3.00;;;;;;;2.28;36.46;101417.84;5011095;28;20030;-60
2021/03/30 02:45:24;;;;;;;10.60;3.53;;;;;;;2.34;37.53;101438.84;5011433;28;20073;-62
2021/03/30 02:47:51;;;;;;;8.30;3.58;;;;;;;2.31;36.97;101430.13;5011342;28;20116;-62
2021/03/30 02:50:18;;;;;;;6.60;2.90;;;;;;;2.23;37.09;101414.44;5011555;28;20118;-63
2021/03/30 02:52:45;;;;;;;5.68;3.08;;;;;;;2.05;37.79;101392.75;5010038;28;20048;-63
2021/03/30 02:55:11;;;;;;;7.97;3.05;;;;;;;2.05;37.75;101403.31;5011475;28;20052;-62
2021/03/30 02:57:41;;;;;;;8.50;3.67;;;;;;;2.17;38.56;101422.47;5009996;28;20038;-61
2021/03/30 03:00:11;;;;;;;10.93;3.83;;;;;;;2.14;38.67;101416.34;5011847;28;20432;-62
2021/03/30 03:02:38;;;;;;;7.22;3.55;;;;;;;2.12;38.48;101417.28;5012396;28;20034;-58
2021/03/30 03:05:08;;;;;;;11.85;3.95;;;;;;;1.73;38.72;101338.78;5011346;28;20029;-63
2021/03/30 03:07:35;;;;;;;6.35;3.50;;;;;;;2.05;38.54;101384.81;5011398;28;20492;-63
2021/03/30 03:10:05;;;;;;;11.88;3.80;;;;;;;2.19;39.11;101396.91;5009997;28;20558;-62
2021/03/30 03:12:37;;;;;;;8.30;4.40;;;;;;;2.23;38.83;101388.00;5011251;28;20096;-62
2021/03/30 03:15:07;;;;;;;5.82;3.40;;;;;;;2.32;38.46;101403.66;5010762;28;20383;-61
2021/03/30 03:17:34;;;;;;;8.30;3.88;;;;;;;2.42;38.77;101386.72;5010085;28;20034;-60
2021/03/30 03:20:00;;;;;;;11.20;3.70;;;;;;;2.46;38.49;101399.88;5010985;28;20037;-62
2021/03/30 03:22:28;;;;;;;7.28;4.00;;;;;;;2.46;38.80;101400.72;5010863;28;20058;-62
2021/03/30 03:24:54;;;;;;;6.32;3.78;;;;;;;2.50;38.46;101393.59;5010399;28;20038;-59
2021/03/30 03:27:20;;;;;;;9.07;3.97;;;;;;;2.54;38.20;101377.66;5010609;28;20521;-61
2021/03/30 03:29:46;;;;;;;11.18;3.63;;;;;;;2.64;38.38;101388.88;5009520;28;20548;-61
2021/03/30 03:32:12;;;;;;;8.10;3.50;;;;;;;2.88;37.50;101394.50;5011024;28;20029;-62
2021/03/30 03:34:38;;;;;;;8.43;3.70;;;;;;;3.14;37.03;101375.38;5011151;28;20033;-52
2021/03/30 03:37:05;;;;;;;4.88;3.28;;;;;;;3.29;36.01;101360.03;5010356;28;20401;-63
2021/03/30 03:39:30;;;;;;;11.85;3.50;;;;;;;3.62;35.62;101383.88;5010703;28;20066;-62
2021/03/30 03:41:56;;;;;;;6.97;2.90;;;;;;;3.92;35.11;101323.00;5010456;28;20076;-60
2021/03/30 03:44:28;;;;;;;8.80;3.20;;;;;;;4.88;32.83;101324.53;5009325;28;20486;-65
2021/03/30 03:46:54;;;;;;;10.38;4.65;;;;;;;6.08;31.94;101376.22;5009114;28;20520;-62
2021/03/30 03:49:20;;;;;;;5.75;3.15;;;;;;;6.52;30.88;101375.50;5008661;28;20046;-64
2021/03/30 03:51:51;;;;;;;8.88;3.03;;;;;;;6.78;30.46;101339.84;5010216;28;20064;-59
2021/03/30 03:54:19;;;;;;;6.65;3.60;;;;;;;7.41;29.57;101380.78;5009755;28;20171;-63
2021/03/30 03:56:47;;;;;;;5.20;3.35;;;;;;;7.55;29.33;101369.53;5010000;28;20034;-63
2021/03/30 03:59:18;;;;;;;7.35;4.00;;;;;;;7.82;28.47;101351.47;5010241;28;20041;-59
2021/03/30 04:01:48;;;;;;;7.47;3.10;;;;;;;8.26;27.77;101379.72;5009969;28;20033;-62
2021/03/30 04:04:25;;;;;;;7.95;3.05;;;;;;;8.22;27.73;101318.59;5010410;28;20497;-62
2021/03/30 04:06:57;;;;;;;9.30;3.25;;;;;;;9.11;26.69;101382.00;5010151;28;20143;-64
2021/03/30 04:09:24;;;;;;;13.73;3.50;;;;;;;9.63;26.12;101368.66;5006600;28;20042;-63
2021/03/30 04:11:52;;;;;;;7.43;3.20;;;;;;;10.05;25.15;101382.56;5010259;28;20515;-63
2021/03/30 04:14:19;;;;;;;7.03;3.17;;;;;;;10.47;24.72;101374.97;5010317;28;20542;-63
2021/03/30 04:16:45;;;;;;;5.85;3.10;;;;;;;11.00;23.90;101385.41;5009962;28;20033;-63
2021/03/30 04:19:11;;;;;;;7.90;3.00;;;;;;;11.83;23.25;101381.47;5005631;28;20091;-64
2021/03/30 04:21:38;;;;;;;6.55;3.20;;;;;;;12.63;21.82;101374.75;5010584;28;20478;-63
2021/03/30 04:24:06;;;;;;;5.50;3.53;;;;;;;13.11;21.31;101351.97;5010864;28;20147;-65
2021/03/30 04:26:32;;;;;;;9.07;3.70;;;;;;;13.81;20.36;101361.59;5010238;28;20042;-63
2021/03/30 04:28:57;;;;;;;9.52;3.42;;;;;;;14.61;19.70;101373.00;5007674;28;20434;-62
2021/03/30 04:31:23;;;;;;;14.52;4.03;;;;;;;15.30;18.89;101361.63;5009685;28;20046;-64
2021/03/30 04:33:48;;;;;;;5.95;3.53;;;;;;;16.18;17.66;101362.09;5009985;28;20037;-63
2021/03/30 04:36:14;;;;;;;6.35;3.65;;;;;;;16.72;17.02;101294.66;5010316;28;20038;-64
2021/03/30 04:38:39;;;;;;;6.25;3.45;;;;;;;17.74;16.08;101352.88;5009792;28;20073;-63
2021/03/30 04:41:07;;;;;;;6.53;3.60;;;;;;;18.37;15.49;101351.03;5010188;28;20404;-64
2021/03/30 04:43:33;;;;;;;8.57;3.58;;;;;;;18.62;14.90;101365.09;5009741;28;20065;-63
2021/03/30 04:45:58;;;;;;;8.45;3.78;;;;;;;18.95;14.56;101363.00;5010158;28;20516;-64
2021/03/30 04:48:24;;;;;;;6.60;3.38;;;;;;;19.45;14.10;101364.78;5009876;28;20029;-63
2021/03/30 04:50:49;;;;;;;6.75;3.58;;;;;;;19.81;13.61;101364.13;5009199;28;20036;-64
2021/03/30 04:53:16;;;;;;;10.98;3.35;;;;;;;20.13;13.44;101357.47;5009830;28;20108;-60
2021/03/30 04:55:41;;;;;;;9.90;3.40;;;;;;;19.53;13.26;101361.31;5009736;28;20057;-65
2021/03/30 04:58:06;;;;;;;5.13;2.95;;;;;;;18.72;13.91;101360.53;5009831;28;20033;-64
2021/03/30 05:00:32;;;;;;;9.23;3.05;;;;;;;17.49;14.33;101379.34;5010453;28;20041;-64
2021/03/30 05:02:58;;;;;;;7.15;3.33;;;;;;;16.19;15.31;101371.03;5012802;28;20120;-62
2021/03/30 05:05:23;;;;;;;7.15;3.20;;;;;;;15.10;16.11;101354.19;5013335;28;20046;-59
2021/03/30 05:07:49;;;;;;;9.68;3.20;;;;;;;14.54;16.85;101360.97;5013210;28;20031;-66
2021/03/30 05:10:15;;;;;;;6.40;3.25;;;;;;;14.29;16.64;101360.03;5012832;28;20096;-65
2021/03/30 05:12:40;;;;;;;14.10;3.50;;;;;;;14.57;16.50;101364.28;5012876;28;20037;-63
2021/03/30 05:15:07;;;;;;;7.47;3.50;;;;;;;15.31;15.88;101357.06;5013562;28;20048;-66
2021/03/30 05:17:33;;;;;;;9.55;3.15;;;;;;;15.79;15.23;101323.72;5012482;28;20517;-62
2021/03/30 05:19:59;;;;;;;7.07;3.33;;;;;;;16.22;14.88;101349.16;5013068;28;20083;-64
2021/03/30 05:22:24;;;;;;;9.45;3.17;;;;;;;17.20;14.21;101325.81;5012781;28;20569;-64
2021/03/30 05:24:50;;;;;;;8.55;2.70;;;;;;;18.49;13.35;101344.50;5013023;28;20042;-67
2021/03/30 05:27:15;;;;;;;8.70;2.88;;;;;;;19.74;12.17;101335.81;5012757;28;20053;-59
2021/03/30 05:29:44;;;;;;;9.65;2.97;;;;;;;20.56;11.38;101338.78;5012519;28;20501;-63
2021/03/30 05:32:14;;;;;;;8.15;2.75;;;;;;;20.94;10.90;101330.53;5012139;28;20128;-63
2021/03/30 05:34:41;;;;;;;6.35;2.75;;;;;;;21.26;10.98;101344.59;5012556;28;20030;-64
2021/03/30 05:37:07;;;;;;;7.53;2.70;;;;;;;21.55;10.54;101325.25;5004086;28;20085;-64
2021/03/30 05:39:33;;;;;;;11.05;3.00;;;;;;;21.89;10.36;101312.72;5009998;28;20045;-67
2021/03/30 05:41:59;;;;;;;10.20;2.97;;;;;;;21.94;10.05;101318.53;5012409;28;20030;-67
2021/03/30 05:44:26;;;;;;;8.55;2.58;;;;;;;21.82;10.31;101309.78;5012206;28;20038;-64
2021/03/30 05:49:27;;;;;;;9.40;2.87;;;;;;;21.23;10.28;101324.84;5011767;28;20036;-64
2021/03/30 05:51:54;;;;;;;19.38;3.00;;;;;;;21.10;10.55;101326.25;5012357;28;20116;-64
2021/03/30 05:54:20;;;;;;;4.63;2.42;;;;;;;21.31;10.25;101315.03;5010068;28;20034;-58
2021/03/30 05:56:46;;;;;;;6.13;2.40;;;;;;;21.52;9.93;101312.78;5012432;28;20488;-63
2021/03/30 05:59:13;;;;;;;7.70;2.65;;;;;;;21.77;9.66;101298.53;5012215;28;20132;-63
2021/03/30 06:01:41;;;;;;;6.38;2.40;;;;;;;21.74;9.57;101302.41;5011943;28;20033;-58
2021/03/30 06:04:09;;;;;;;10.43;3.00;;;;;;;21.21;9.83;101315.09;5010804;28;20044;-63
2021/03/30 06:06:36;;;;;;;6.65;2.67;;;;;;;20.87;10.38;101302.22;5011987;28;20107;-64
2021/03/30 06:09:05;;;;;;;10.45;3.00;;;;;;;20.89;10.47;101297.47;5011826;28;20052;-62
2021/03/30 06:11:30;;;;;;;8.60;2.83;;;;;;;21.00;10.22;101308.16;5011834;28;20512;-64
2021/03/30 06:13:57;;;;;;;13.15;3.20;;;;;;;20.98;10.70;101312.91;5011410;28;20026;-61
2021/03/30 06:16:42;;;;;;;12.32;3.15;;;;;;;20.74;10.86;101308.91;5011529;28;20450;-63
2021/03/30 06:19:15;;;;;;;9.90;2.83;;;;;;;21.11;10.59;101308.91;5011903;28;20034;-64
2021/03/30 06:21:43;;;;;;;5.50;2.95;;;;;;;21.16;10.73;101306.56;5011825;28;20072;-64
2021/03/30 06:24:20;;;;;;;9.15;3.20;;;;;;;21.28;11.00;101299.88;5012542;28;20084;-63
2021/03/30 06:26:45;;;;;;;9.55;2.60;;;;;;;21.09;11.11;101300.88;5011502;28;20053;-66
2021/03/30 06:29:37;;;;;;;7.88;2.90;;;;;;;21.88;10.80;101292.78;5012108;28;20049;-64
2021/03/30 06:32:10;;;;;;;7.25;2.90;;;;;;;22.03;10.34;101300.34;5002186;28;20124;-64
2021/03/30 06:34:41;;;;;;;12.50;2.88;;;;;;;21.90;10.63;101296.19;5011774;28;20042;-66
2021/03/30 06:37:25;;;;;;;14.88;2.83;;;;;;;21.49;11.21;101295.94;5011812;28;20490;-69
2021/03/30 06:39:51;;;;;;;20.63;2.70;;;;;;;20.73;11.54;101306.31;5011800;28;20026;-65
2021/03/30 06:42:39;;;;;;;6.82;2.67;;;;;;;20.77;11.32;101296.81;5011226;28;20439;-67
2021/03/30 06:45:22;;;;;;;10.18;2.67;;;;;;;21.36;11.25;101290.91;5011199;28;20497;-67
2021/03/30 06:47:54;;;;;;;7.97;2.63;;;;;;;21.69;10.86;101271.19;5010865;28;20046;-65
2021/03/30 06:50:32;;;;;;;7.80;2.70;;;;;;;23.05;10.20;101302.16;5026516;28;20030;-62
2021/03/30 06:53:18;;;;;;;12.48;3.42;;;;;;;24.18;9.53;101289.50;5010594;28;20048;-66
2021/03/30 06:55:51;;;;;;;11.95;3.25;;;;;;;25.65;8.85;101298.72;5010932;28;20037;-66
2021/03/30 06:58:18;;;;;;;9.10;3.72;;;;;;;26.89;7.80;101284.44;5010284;28;20129;-65
2021/03/30 07:00:45;;;;;;;10.52;3.85;;;;;;;28.30;7.52;101287.31;5006778;28;20214;-65
2021/03/30 07:03:13;;;;;;;7.60;3.38;;;;;;;29.42;6.86;101297.03;5004909;28;20485;-66
2021/03/30 07:05:40;;;;;;;8.20;3.50;;;;;;;30.37;6.06;101287.44;5007133;28;20151;-63
2021/03/30 07:08:07;;;;;;;14.73;5.28;;;;;;;31.10;5.82;101271.44;5006261;28;20398;-66
2021/03/30 07:10:34;;;;;;;14.20;4.03;;;;;;;31.33;5.66;101273.59;5009903;28;20052;-59
2021/03/30 07:13:00;;;;;;;12.82;3.88;;;;;;;31.69;5.70;101267.50;5009744;28;20026;-68
2021/03/30 07:15:26;;;;;;;9.23;4.00;;;;;;;31.21;5.81;101261.59;5009808;28;20168;-66
2021/03/30 07:18:16;;;;;;;7.82;3.28;;;;;;;29.78;6.29;101271.72;5008291;28;20103;-69
2021/03/30 07:20:47;;;;;;;8.57;3.22;;;;;;;27.88;7.12;101279.06;5009168;28;20056;-64
2021/03/30 07:23:21;;;;;;;7.45;3.05;;;;;;;26.93;7.53;101274.75;5009156;28;20156;-66
2021/03/30 07:26:04;;;;;;;13.02;2.97;;;;;;;27.05;7.36;101275.91;5009270;28;20103;-64
2021/03/30 07:28:34;;;;;;;6.00;3.17;;;;;;;27.51;6.89;101252.59;5004995;28;20040;-68
2021/03/30 07:31:11;;;;;;;9.82;3.70;;;;;;;28.28;6.84;101261.88;5009590;28;20045;-69
2021/03/30 07:34:10;;;;;;;9.88;3.42;;;;;;;29.20;6.53;101259.47;5005651;28;20038;-61
2021/03/30 07:36:46;;;;;;;9.93;3.97;;;;;;;29.77;6.06;101247.09;5010158;28;20045;-64
2021/03/30 07:39:17;;;;;;;6.75;3.60;;;;;;;30.17;5.71;101216.59;5008551;28;20034;-66
2021/03/30 07:41:43;;;;;;;13.35;3.67;;;;;;;29.90;5.81;101235.16;4998653;28;20049;-67
2021/03/30 07:44:10;;;;;;;6.57;2.95;;;;;;;28.60;6.28;101246.50;5010419;28;20490;-68
2021/03/30 07:46:36;;;;;;;12.10;3.30;;;;;;;27.36;6.96;101251.81;5008168;28;20033;-64
2021/03/30 07:49:04;;;;;;;8.00;2.58;;;;;;;25.81;7.88;101211.81;5007032;28;20042;-66
2021/03/30 07:51:44;;;;;;;6.40;3.30;;;;;;;24.78;8.48;101182.22;5009848;28;20194;-64
2021/03/30 07:54:11;;;;;;;9.20;3.33;;;;;;;23.29;9.19;101178.38;5008403;28;20040;-63
2021/03/30 07:56:36;;;;;;;8.93;3.67;;;;;;;22.65;9.87;101234.56;5009190;28;20034;-64
2021/03/30 07:59:02;;;;;;;12.13;3.83;;;;;;;22.35;10.22;101242.34;5009427;28;20461;-64
2021/03/30 08:01:30;;;;;;;9.70;3.70;;;;;;;21.39;10.73;101237.94;5009228;28;20088;-64
2021/03/30 08:03:57;;;;;;;8.77;3.28;;;;;;;19.89;11.17;101241.06;5009354;28;20513;-64
2021/03/30 08:06:24;;;;;;;11.25;3.33;;;;;;;18.39;12.57;101235.16;5009923;28;20072;-69
2021/03/30 08:08:58;;;;;;;6.63;3.15;;;;;;;17.59;13.23;101230.47;5009456;28;20052;-69
2021/03/30 08:11:43;;;;;;;9.80;3.35;;;;;;;17.32;13.89;101209.38;5009135;28;20125;-69
2021/03/30 08:14:18;;;;;;;15.60;3.50;;;;;;;16.59;14.25;101242.56;5008478;28;20092;-67
2021/03/30 08:16:46;;;;;;;12.68;3.45;;;;;;;15.74;14.75;101240.34;5007868;28;20048;-66
2021/03/30 08:19:13;;;;;;;11.15;2.95;;;;;;;15.17;15.50;101225.94;5009592;28;20060;-66
2021/03/30 08:22:10;;;;;;;13.35;3.35;;;;;;;15.02;15.68;101218.06;5009149;28;20140;-64
2021/03/30 08:24:45;;;;;;;10.13;2.83;;;;;;;14.44;16.68;101232.25;4999500;28;20068;-70
2021/03/30 08:27:37;;;;;;;8.98;3.38;;;;;;;14.33;16.64;101211.50;5006586;28;20116;-66
2021/03/30 08:30:12;;;;;;;8.90;3.47;;;;;;;14.45;16.85;101233.97;5002543;28;20194;-65
2021/03/30 08:32:43;;;;;;;10.18;3.38;;;;;;;14.72;16.68;101240.16;5006656;28;20516;-64
2021/03/30 08:35:38;;;;;;;11.85;3.22;;;;;;;14.69;16.82;101240.34;5009074;28;20128;-69
2021/03/30 08:38:05;;;;;;;14.20;3.35;;;;;;;14.29;17.25;101238.81;5014482;28;20096;-71
2021/03/30 08:40:36;;;;;;;9.73;3.28;;;;;;;13.99;17.77;101240.09;5008096;28;20394;-70
2021/03/30 08:43:14;;;;;;;11.25;3.50;;;;;;;13.81;17.83;101218.91;5011344;28;20041;-69
2021/03/30 08:46:13;;;;;;;5.32;2.95;;;;;;;13.67;17.81;101202.88;5011199;28;20089;-68
2021/03/30 08:48:38;;;;;;;10.88;3.30;;;;;;;13.46;18.10;101227.66;5014172;28;20044;-68
2021/03/30 08:51:06;;;;;;;6.95;3.03;;;;;;;13.09;18.68;101198.78;5013204;28;20472;-75
2021/03/30 08:53:32;;;;;;;8.77;3.20;;;;;;;13.07;18.76;101222.22;5012484;28;20402;-66
2021/03/30 08:56:03;;;;;;;18.48;3.30;;;;;;;12.31;19.10;101128.78;5013076;28;20037;-66
2021/03/30 08:58:29;;;;;;;11.20;3.20;;;;;;;12.43;19.70;101206.84;5012874;28;20040;-67
2021/03/30 09:00:56;;;;;;;9.07;2.60;;;;;;;11.85;20.10;101150.56;5012292;28;20468;-69
2021/03/30 09:03:28;;;;;;;9.55;3.10;;;;;;;11.87;20.83;101195.16;5013799;28;20036;-75
2021/03/30 09:05:53;;;;;;;4.70;3.25;;;;;;;11.70;20.81;101212.34;5015090;28;20042;-75
2021/03/30 09:08:40;;;;;;;7.53;2.92;;;;;;;11.01;20.83;101062.03;5012932;28;20030;-66
2021/03/30 09:11:20;;;;;;;5.57;2.85;;;;;;;11.76;21.13;101192.28;5012579;28;20034;-69
2021/03/30 09:13:59;;;;;;;6.47;2.80;;;;;;;11.95;21.20;101196.47;5011885;28;20038;-67
2021/03/30 09:16:25;;;;;;;10.02;2.95;;;;;;;12.15;20.97;101193.38;5010891;28;20052;-65
2021/03/30 09:18:52;;;;;;;6.85;3.03;;;;;;;12.19;20.77;101197.59;5006226;28;20516;-67
2021/03/30 09:21:22;;;;;;;11.27;2.67;;;;;;;12.17;20.92;101191.47;5009799;28;20044;-65
2021/03/30 09:23:49;;;;;;;7.53;2.80;;;;;;;12.18;20.79;101185.13;5010588;28;20050;-70
2021/03/30 09:26:17;;;;;;;9.70;2.53;;;;;;;11.99;20.97;101150.56;5011835;28;20137;-72
2021/03/30 09:28:53;;;;;;;4.47;2.40;;;;;;;12.14;20.96;101182.72;5005980;28;20062;-67
2021/03/30 09:31:18;;;;;;;8.00;3.05;;;;;;;11.97;20.89;101133.69;5010176;28;20123;-65
2021/03/30 09:33:44;;;;;;;11.60;2.80;;;;;;;12.26;20.71;101168.53;5011917;28;20406;-69
2021/03/30 09:36:13;;;;;;;13.32;3.17;;;;;;;12.10;20.43;101131.09;5011596;28;20038;-66
2021/03/30 09:38:49;;;;;;;9.68;2.30;;;;;;;12.55;20.15;101135.31;5012594;28;20045;-68
2021/03/30 09:41:33;;;;;;;9.45;2.50;;;;;;;12.59;20.07;101147.56;5011802;28;20490;-66
2021/03/30 09:44:01;;;;;;;88.97;6.13;;;;;;;12.67;19.78;101150.56;5012150;28;20108;-70
2021/03/30 09:46:26;;;;;;;9.55;2.25;;;;;;;12.56;19.77;101126.28;5010135;28;20030;-65
2021/03/30 09:48:52;;;;;;;11.02;2.72;;;;;;;12.79;19.68;101156.94;5010955;28;20049;-69
2021/03/30 09:51:18;;;;;;;7.15;2.03;;;;;;;12.90;19.50;101140.06;5011188;28;20044;-69
2021/03/30 09:53:44;;;;;;;8.07;2.50;;;;;;;13.01;19.52;101133.94;5010228;28;20038;-66
2021/03/30 09:56:19;;;;;;;7.05;2.10;;;;;;;13.26;19.12;101135.75;5011899;28;20468;-63
2021/03/30 09:58:45;;;;;;;6.18;2.35;;;;;;;13.43;19.03;101123.81;5012342;28;20038;-68
2021/03/30 10:01:10;;;;;;;11.60;2.42;;;;;;;13.43;19.16;101112.19;5010751;28;20060;-69
2021/03/30 10:03:36;;;;;;;7.57;2.40;;;;;;;13.68;18.69;101123.84;5001475;28;20535;-64
2021/03/30 10:06:02;;;;;;;6.32;2.40;;;;;;;13.62;18.84;101099.13;5009090;28;20041;-66
2021/03/30 10:08:29;;;;;;;6.70;2.42;;;;;;;13.80;18.74;101128.34;5010665;28;20057;-66
2021/03/30 10:10:57;;;;;;;4.53;2.10;;;;;;;13.75;18.71;101119.78;5009825;28;20121;-68
2021/03/30 10:13:30;;;;;;;4.93;2.08;;;;;;;13.77;18.95;101117.81;5011287;28;20100;-73
2021/03/30 10:16:22;;;;;;;6.00;2.10;;;;;;;13.61;18.76;101083.94;5002918;28;20034;-66
2021/03/30 10:18:48;;;;;;;4.85;2.75;;;;;;;13.71;18.70;101096.72;5013230;28;20048;-66
2021/03/30 10:21:19;;;;;;;6.63;2.08;;;;;;;13.58;18.78;101097.63;5011170;28;20033;-64
2021/03/30 10:23:50;;;;;;;8.57;1.90;;;;;;;13.44;18.78;101087.00;5010374;28;20172;-63
2021/03/30 10:26:17;;;;;;;12.60;2.42;;;;;;;13.41;18.68;101093.47;5011043;28;20042;-63
2021/03/30 10:28:57;;;;;;;41.20;3.38;;;;;;;13.45;18.42;101108.44;5008025;28;20034;-56
2021/03/30 10:31:45;;;;;;;12.15;1.88;;;;;;;13.25;18.55;101085.59;5006522;28;20431;-68
2021/03/30 10:34:25;;;;;;;6.70;2.13;;;;;;;12.92;18.75;101079.00;5005329;28;20052;-67
2021/03/30 10:36:52;;;;;;;25.00;2.35;;;;;;;12.61;18.69;101024.72;5005538;28;20052;-69
2021/03/30 10:39:31;;;;;;;6.10;1.90;;;;;;;12.93;18.49;101083.41;5011207;28;20461;-66
2021/03/30 10:42:17;;;;;;;31.63;2.75;;;;;;;12.94;18.48;101076.22;5011445;28;20059;-69
2021/03/30 10:44:47;;;;;;;11.13;2.05;;;;;;;12.78;18.69;101080.84;5012376;28;20105;-72
2021/03/30 10:47:20;;;;;;;5.15;1.75;;;;;;;12.71;18.82;101066.09;5006742;28;20049;-65
2021/03/30 10:49:48;;;;;;;9.15;1.90;;;;;;;12.66;18.65;101062.88;5001408;28;20612;-65
2021/03/30 10:52:48;;;;;;;5.20;2.05;;;;;;;12.62;18.69;101064.06;5010571;28;20507;-69
2021/03/30 10:55:17;;;;;;;5.35;1.58;;;;;;;12.72;18.83;101051.69;5009515;28;20084;-68
2021/03/30 10:57:45;;;;;;;5.10;1.75;;;;;;;12.71;18.71;101047.28;5009701;28;20490;-63
2021/03/30 11:00:11;;;;;;;6.97;1.55;;;;;;;12.68;18.31;101050.19;5010911;28;20038;-66
2021/03/30 11:02:37;;;;;;;9.70;2.03;;;;;;;12.51;18.44;101026.31;5006555;28;20038;-66
2021/03/30 11:05:07;;;;;;;10.38;2.15;;;;;;;12.75;18.40;101059.53;5010362;28;20034;-61
2021/03/30 11:07:32;;;;;;;5.82;1.73;;;;;;;12.75;18.22;101050.63;5008778;28;20397;-68
2021/03/30 11:09:58;;;;;;;13.30;1.80;;;;;;;12.70;18.19;101029.44;5010145;28;20034;-67
2021/03/30 11:12:24;;;;;;;7.57;2.03;;;;;;;12.63;18.21;101028.16;5018563;28;20523;-77
2021/03/30 11:14:49;;;;;;;6.90;2.20;;;;;;;12.66;18.46;101022.56;5014853;28;20034;-68
2021/03/30 11:17:15;;;;;;;6.80;1.90;;;;;;;12.75;18.38;101008.47;5011664;28;20441;-68
2021/03/30 11:19:41;;;;;;;4.85;2.00;;;;;;;12.82;18.73;101016.97;5010383;28;20026;-73
2021/03/30 11:22:07;;;;;;;5.03;1.90;;;;;;;12.46;18.56;100933.50;5002766;28;20120;-75
2021/03/30 11:24:35;;;;;;;3.95;1.92;;;;;;;12.90;18.60;100989.53;5008261;28;20449;-68
2021/03/30 11:27:01;;;;;;;3.55;1.90;;;;;;;12.94;18.55;100979.44;5005973;28;20129;-67
2021/03/30 11:39:31;;;;;;;4.53;1.90;;;;;;;12.73;19.03;100988.91;5009964;28;20108;-68
2021/03/30 11:41:57;;;;;;;7.07;2.13;;;;;;;12.71;19.07;100985.47;5010006;28;20489;-69
2021/03/30 11:44:22;;;;;;;4.20;2.35;;;;;;;12.68;19.32;100958.81;5010270;28;20060;-67
2021/03/30 11:46:48;;;;;;;5.18;2.38;;;;;;;12.82;19.37;100971.28;5009937;28;20473;-70
2021/03/30 11:49:13;;;;;;;8.32;2.05;;;;;;;12.70;19.33;100962.25;5010354;28;20181;-68
2021/03/30 11:51:38;;;;;;;7.28;2.38;;;;;;;12.70;19.57;100956.88;5009642;28;20033;-74